createdAt,value
2023-02-18T00:01:53.218Z,96.70
2023-02-18T00:04:19.761Z,96.86
2023-02-18T00:06:46.328Z,97.06
2023-02-18T00:09:18.356Z,97.15
2023-02-18T00:11:52.398Z,97.07
2023-02-18T00:14:19.504Z,96.85
2023-02-18T00:16:57.313Z,96.87
2023-02-18T00:19:26.644Z,96.59
2023-02-18T00:21:55.889Z,97.07
2023-02-18T00:24:40.847Z,96.96
2023-02-18T00:27:07.652Z,97.00
2023-02-18T00:29:34.276Z,97.25
2023-02-18T00:32:03.105Z,96.75
2023-02-18T00:34:34.421Z,96.86
2023-02-18T00:37:01.118Z,97.25
2023-02-18T00:39:27.720Z,97.06
2023-02-18T00:41:54.298Z,96.42
2023-02-18T00:44:26.228Z,96.65
2023-02-18T00:46:53.626Z,96.79
2023-02-18T00:49:22.336Z,96.51
2023-02-18T00:51:51.315Z,96.65
2023-02-18T00:54:17.738Z,96.78
2023-02-18T00:56:51.750Z,97.04
2023-02-18T00:59:20.428Z,96.55
2023-02-18T01:01:52.613Z,96.40
2023-02-18T01:04:21.666Z,96.48
2023-02-18T01:06:48.331Z,96.52
2023-02-18T01:09:17.462Z,96.69
2023-02-18T01:11:45.466Z,96.18
2023-02-18T01:14:18.536Z,96.57
2023-02-18T01:16:48.323Z,96.48
2023-02-18T01:19:16.841Z,96.65
2023-02-18T01:21:49.250Z,96.55
2023-02-18T01:24:15.730Z,96.83
2023-02-18T01:26:42.339Z,97.11
2023-02-18T01:29:17.672Z,96.86
2023-02-18T01:31:46.442Z,97.04
2023-02-18T01:34:15.792Z,97.27
2023-02-18T01:36:42.734Z,97.68
2023-02-18T01:39:09.371Z,97.81
2023-02-18T01:41:37.998Z,97.93
2023-02-18T01:44:25.198Z,97.98
2023-02-18T01:46:51.734Z,98.24
2023-02-18T01:49:27.815Z,98.63
2023-02-18T01:52:07.095Z,98.97
2023-02-18T01:54:39.811Z,98.97
2023-02-18T01:57:10.600Z,99.09
2023-02-18T01:59:46.460Z,99.30
2023-02-18T02:02:16.857Z,99.54
2023-02-18T02:04:44.074Z,99.25
2023-02-18T02:07:11.001Z,99.76
2023-02-18T02:09:39.736Z,100.00
2023-02-18T02:12:28.609Z,100.00
2023-02-18T02:15:23.482Z,100.00
2023-02-18T02:18:24.383Z,100.00
2023-02-18T02:21:28.743Z,100.00
2023-02-18T02:24:26.025Z,99.69
2023-02-18T02:27:35.003Z,99.69
2023-02-18T02:30:26.423Z,99.29
2023-02-18T02:33:04.925Z,99.29
2023-02-18T02:35:38.860Z,99.06
2023-02-18T02:38:12.508Z,98.84
2023-02-18T02:40:50.692Z,99.29
2023-02-18T02:43:27.964Z,98.90
2023-02-18T02:46:04.735Z,98.24
2023-02-18T02:48:42.942Z,99.00
2023-02-18T02:51:27.638Z,98.24
2023-02-18T02:53:54.584Z,98.40
2023-02-18T02:56:23.936Z,98.42
2023-02-18T02:59:08.630Z,98.29
2023-02-18T03:01:56.054Z,97.91
2023-02-18T03:04:35.294Z,98.27
2023-02-18T03:07:34.744Z,97.99
2023-02-18T03:10:48.642Z,97.38
2023-02-18T03:13:33.252Z,96.53
2023-02-18T03:16:18.765Z,96.26
2023-02-18T03:19:06.187Z,95.48
2023-02-18T03:21:45.367Z,95.06
2023-02-18T03:24:20.593Z,95.04
2023-02-18T03:27:00.982Z,95.04
2023-02-18T03:29:29.001Z,94.91
2023-02-18T03:32:03.038Z,94.82
2023-02-18T03:34:34.147Z,94.69
2023-02-18T03:37:01.880Z,94.88
2023-02-18T03:39:33.520Z,94.92
2023-02-18T03:42:02.365Z,95.01
2023-02-18T03:44:35.266Z,94.87
2023-02-18T03:47:04.405Z,94.95
2023-02-18T03:49:30.883Z,94.89
2023-02-18T03:51:57.351Z,94.56
2023-02-18T03:54:23.886Z,94.73
2023-02-18T03:56:54.952Z,94.71
2023-02-18T03:59:24.068Z,94.57
2023-02-18T04:01:52.240Z,94.82
2023-02-18T04:04:18.848Z,94.75
2023-02-18T04:06:52.905Z,95.05
2023-02-18T04:09:21.725Z,94.21
2023-02-18T04:11:48.195Z,94.21
2023-02-18T04:14:15.008Z,93.94
2023-02-18T04:16:51.753Z,93.92
2023-02-18T04:19:18.315Z,93.86
2023-02-18T04:21:44.722Z,94.25
2023-02-18T04:24:11.112Z,94.12
2023-02-18T04:26:37.586Z,93.53
2023-02-18T04:29:06.972Z,93.21
2023-02-18T04:31:36.368Z,92.79
2023-02-18T04:34:05.366Z,92.88
2023-02-18T04:36:34.479Z,92.25
2023-02-18T04:39:00.935Z,92.41
2023-02-18T04:41:30.030Z,92.11
2023-02-18T04:44:10.035Z,91.28
2023-02-18T04:46:48.660Z,90.76
2023-02-18T04:49:15.268Z,90.93
2023-02-18T04:51:44.114Z,90.30
2023-02-18T04:54:10.621Z,89.76
2023-02-18T04:56:37.176Z,89.96
2023-02-18T04:59:04.408Z,90.07
2023-02-18T05:01:31.093Z,89.73
2023-02-18T05:03:57.937Z,90.13
2023-02-18T05:06:24.438Z,90.04
2023-02-18T05:08:53.618Z,90.12
2023-02-18T05:11:20.126Z,90.39
2023-02-18T05:13:46.610Z,90.98
2023-02-18T05:16:13.864Z,90.76
2023-02-18T05:18:43.154Z,91.07
2023-02-18T05:21:09.997Z,90.49
2023-02-18T05:23:36.747Z,90.64
2023-02-18T05:26:03.382Z,91.11
2023-02-18T05:28:30.151Z,91.28
2023-02-18T05:30:56.950Z,91.36
2023-02-18T05:33:23.706Z,91.69
2023-02-18T05:35:57.985Z,91.70
2023-02-18T05:38:24.543Z,91.62
2023-02-18T05:40:50.908Z,91.96
2023-02-18T05:43:18.102Z,91.81
2023-02-18T05:45:46.060Z,92.22
2023-02-18T05:48:12.450Z,92.21
2023-02-18T05:50:47.751Z,92.76
2023-02-18T05:53:17.729Z,92.92
2023-02-18T05:55:46.503Z,93.46
2023-02-18T05:58:13.699Z,93.30
2023-02-18T06:00:50.206Z,93.54
2023-02-18T06:03:16.745Z,93.97
2023-02-18T06:05:45.794Z,94.10
2023-02-18T06:08:12.629Z,94.02
2023-02-18T06:10:48.195Z,94.94
2023-02-18T06:13:25.298Z,95.22
2023-02-18T06:15:55.404Z,95.63
2023-02-18T06:18:22.430Z,95.80
2023-02-18T06:20:49.252Z,96.19
2023-02-18T06:23:18.549Z,96.25
2023-02-18T06:25:51.319Z,96.32
2023-02-18T06:28:22.738Z,96.14
2023-02-18T06:30:50.358Z,96.80
2023-02-18T06:33:17.101Z,97.27
2023-02-18T06:35:56.598Z,96.92
2023-02-18T06:38:28.570Z,97.13
2023-02-18T06:40:57.502Z,97.31
2023-02-18T06:43:29.085Z,97.74
2023-02-18T06:45:55.507Z,97.74
2023-02-18T06:48:22.155Z,98.23
2023-02-18T06:50:54.144Z,98.09
2023-02-18T06:53:20.984Z,98.38
2023-02-18T06:55:53.469Z,98.22
2023-02-18T06:58:19.879Z,98.63
2023-02-18T07:00:47.295Z,98.32
2023-02-18T07:03:17.191Z,98.86
2023-02-18T07:05:46.340Z,99.00
2023-02-18T07:08:15.594Z,98.51
2023-02-18T07:10:42.500Z,98.88
2023-02-18T07:13:16.654Z,98.94
2023-02-18T07:15:46.134Z,98.71
2023-02-18T07:18:12.952Z,98.66
2023-02-18T07:20:42.176Z,99.06
2023-02-18T07:23:11.369Z,99.03
2023-02-18T07:25:41.016Z,98.74
2023-02-18T07:28:07.900Z,98.62
2023-02-18T07:30:37.074Z,98.74
2023-02-18T07:33:11.910Z,99.00
2023-02-18T07:35:44.698Z,98.76
2023-02-18T07:38:13.639Z,98.26
2023-02-18T07:40:40.618Z,97.90
2023-02-18T07:43:06.970Z,97.63
2023-02-18T07:45:41.497Z,97.58
2023-02-18T07:48:07.950Z,97.30
2023-02-18T07:50:35.225Z,96.90
2023-02-18T07:53:09.892Z,96.26
2023-02-18T07:55:53.550Z,96.48
2023-02-18T07:58:24.737Z,96.18
2023-02-18T08:00:54.155Z,95.76
2023-02-18T08:03:31.628Z,96.17
2023-02-18T08:06:01.413Z,95.32
2023-02-18T08:08:30.813Z,94.81
2023-02-18T08:11:13.401Z,95.18
2023-02-18T08:13:47.001Z,93.40
2023-02-18T08:16:14.447Z,93.90
2023-02-18T08:18:42.043Z,92.79
2023-02-18T08:21:09.035Z,92.81
2023-02-18T08:23:47.470Z,91.93
2023-02-18T08:26:16.137Z,91.39
2023-02-18T08:28:51.746Z,91.21
2023-02-18T08:31:31.995Z,90.88
2023-02-18T08:34:01.115Z,90.40
2023-02-18T08:36:30.776Z,90.33
2023-02-18T08:38:58.185Z,89.61
2023-02-18T08:41:24.646Z,89.16
2023-02-18T08:43:54.663Z,88.54
2023-02-18T08:46:35.154Z,88.44
2023-02-18T08:49:03.288Z,88.34
2023-02-18T08:51:30.331Z,87.38
2023-02-18T08:53:59.479Z,87.11
2023-02-18T08:56:28.785Z,87.57
2023-02-18T08:58:58.739Z,87.57
2023-02-18T09:01:25.939Z,87.19
2023-02-18T09:03:52.401Z,87.27
2023-02-18T09:06:18.914Z,87.37
2023-02-18T09:08:45.768Z,86.99
2023-02-18T09:11:12.481Z,85.87
2023-02-18T09:13:39.776Z,85.55
2023-02-18T09:16:09.623Z,85.72
2023-02-18T09:18:36.756Z,85.10
2023-02-18T09:21:05.549Z,84.40
2023-02-18T09:23:33.691Z,84.25
2023-02-18T09:26:00.741Z,83.42
2023-02-18T09:28:27.414Z,83.96
2023-02-18T09:30:56.259Z,82.02
2023-02-18T09:33:23.106Z,82.46
2023-02-18T09:35:49.512Z,82.78
2023-02-18T09:38:17.918Z,82.00
2023-02-18T09:40:48.955Z,82.82
2023-02-18T09:43:38.838Z,81.25
2023-02-18T09:46:21.600Z,80.47
2023-02-18T09:48:52.383Z,80.99
2023-02-18T09:51:20.141Z,80.76
2023-02-18T09:53:47.863Z,80.30
2023-02-18T09:56:20.791Z,80.54
2023-02-18T09:58:49.138Z,80.22
2023-02-18T10:01:32.864Z,79.07
2023-02-18T10:04:03.958Z,79.01
2023-02-18T10:06:35.379Z,78.74
2023-02-18T10:09:06.384Z,78.48
2023-02-18T10:11:41.650Z,77.02
2023-02-18T10:14:15.954Z,77.40
2023-02-18T10:16:45.110Z,77.85
2023-02-18T10:19:20.654Z,77.69
2023-02-18T10:21:50.281Z,77.39
2023-02-18T10:24:27.322Z,78.25
2023-02-18T10:26:55.619Z,77.55
2023-02-18T10:29:23.399Z,77.34
2023-02-18T10:31:53.211Z,77.11
2023-02-18T10:35:13.682Z,77.33
2023-02-18T10:37:54.352Z,76.29
2023-02-18T10:40:59.913Z,76.52
2023-02-18T10:43:53.702Z,76.03
2023-02-18T10:46:33.425Z,74.23
2023-02-18T10:49:42.103Z,74.41
2023-02-18T10:52:19.697Z,73.95
2023-02-18T10:54:54.727Z,73.58
2023-02-18T10:57:23.490Z,74.47
2023-02-18T11:00:16.306Z,73.72
2023-02-18T11:02:44.441Z,73.30
2023-02-18T11:05:39.875Z,73.16
2023-02-18T11:08:25.803Z,74.05
2023-02-18T11:10:54.057Z,71.85
2023-02-18T11:13:36.976Z,72.65
2023-02-18T11:16:09.350Z,71.36
2023-02-18T11:18:52.053Z,72.30
2023-02-18T11:21:29.429Z,72.98
2023-02-18T11:23:57.737Z,72.50
2023-02-18T11:26:32.507Z,73.53
2023-02-18T11:29:08.065Z,74.10
2023-02-18T11:31:45.374Z,74.38
2023-02-18T11:34:20.530Z,73.95
2023-02-18T11:36:50.774Z,74.65
2023-02-18T11:39:22.498Z,74.81
2023-02-18T11:42:05.415Z,73.79
2023-02-18T11:44:52.365Z,73.73
2023-02-18T11:47:31.151Z,73.98
2023-02-18T11:50:08.918Z,73.55
2023-02-18T11:52:41.685Z,73.47
2023-02-18T11:55:15.769Z,74.30
2023-02-18T11:57:55.042Z,73.46
2023-02-18T12:00:47.881Z,73.46
2023-02-18T12:03:41.109Z,73.90
2023-02-18T12:06:30.406Z,72.12
2023-02-18T12:09:04.357Z,70.80
2023-02-18T12:11:42.558Z,72.08
2023-02-18T12:14:24.434Z,72.17
2023-02-18T12:16:56.147Z,69.81
2023-02-18T12:19:52.058Z,70.42
2023-02-18T12:22:33.849Z,69.88
2023-02-18T12:28:56.139Z,69.76
2023-02-18T12:31:46.188Z,69.94
2023-02-18T12:35:13.457Z,69.25
2023-02-18T12:37:54.101Z,68.65
2023-02-18T12:40:48.156Z,68.02
2023-02-18T12:44:05.302Z,67.34
2023-02-18T12:46:57.047Z,67.00
2023-02-18T12:49:26.685Z,66.82
2023-02-18T12:52:14.649Z,66.04
2023-02-18T12:55:02.369Z,67.57
2023-02-18T12:58:10.421Z,67.09
2023-02-18T13:01:09.873Z,67.48
2023-02-18T13:03:58.217Z,66.07
2023-02-18T13:06:41.014Z,65.91
2023-02-18T13:09:07.755Z,65.57
2023-02-18T13:11:45.413Z,65.54
2023-02-18T13:14:22.323Z,65.19
2023-02-18T13:16:52.408Z,65.52
2023-02-18T13:19:28.714Z,64.89
2023-02-18T13:22:04.762Z,64.58
2023-02-18T13:24:35.694Z,65.63
2023-02-18T13:27:16.670Z,64.64
2023-02-18T13:29:52.187Z,65.89
2023-02-18T13:32:32.396Z,65.20
2023-02-18T13:34:58.862Z,64.82
2023-02-18T13:37:36.158Z,66.14
2023-02-18T13:40:04.233Z,65.63
2023-02-18T13:42:30.581Z,65.33
2023-02-18T13:44:57.033Z,65.55
2023-02-18T13:47:37.625Z,65.97
2023-02-18T13:50:22.154Z,66.29
2023-02-18T13:53:00.464Z,66.01
2023-02-18T13:55:55.704Z,66.25
2023-02-18T13:58:29.299Z,66.07
2023-02-18T14:01:04.908Z,66.87
2023-02-18T14:03:36.218Z,66.90
2023-02-18T14:06:13.966Z,67.22
2023-02-18T14:08:43.366Z,67.24
2023-02-18T14:11:14.373Z,67.25
2023-02-18T14:13:48.646Z,67.94
2023-02-18T14:16:15.275Z,67.90
2023-02-18T14:18:41.702Z,68.06
2023-02-18T14:21:13.961Z,68.03
2023-02-18T14:23:55.891Z,67.78
2023-02-18T14:26:32.169Z,68.31
2023-02-18T14:29:20.866Z,68.57
2023-02-18T14:31:54.079Z,67.32
2023-02-18T14:34:22.822Z,67.10
2023-02-18T14:37:19.461Z,67.07
2023-02-18T14:40:13.690Z,67.15
2023-02-18T14:42:51.911Z,68.23
2023-02-18T14:45:41.942Z,68.63
2023-02-18T14:48:28.012Z,68.43
2023-02-18T14:50:56.542Z,68.18
2023-02-18T14:53:26.477Z,68.41
2023-02-18T14:56:03.783Z,68.51
2023-02-18T14:58:36.217Z,68.63
2023-02-18T15:01:33.551Z,68.91
2023-02-18T15:04:01.509Z,68.09
2023-02-18T15:06:38.436Z,68.26
2023-02-18T15:09:31.605Z,67.81
2023-02-18T15:12:00.661Z,68.14
2023-02-18T15:14:31.947Z,68.60
2023-02-18T15:16:59.777Z,68.46
2023-02-18T15:19:29.538Z,68.60
2023-02-18T15:21:57.568Z,68.27
2023-02-18T15:24:27.017Z,68.72
2023-02-18T15:26:58.902Z,68.78
2023-02-18T15:29:28.420Z,68.75
2023-02-18T15:31:59.325Z,69.37
2023-02-18T15:34:28.782Z,69.26
2023-02-18T15:37:03.238Z,69.77
2023-02-18T15:39:32.392Z,69.33
2023-02-18T15:42:06.152Z,69.86
2023-02-18T15:44:35.965Z,70.17
2023-02-18T15:47:07.592Z,70.17
2023-02-18T15:49:38.954Z,70.40
2023-02-18T15:52:08.777Z,70.65
2023-02-18T15:54:39.349Z,70.28
2023-02-18T15:57:07.151Z,70.66
2023-02-18T15:59:35.967Z,70.78
2023-02-18T16:02:08.326Z,71.15
2023-02-18T16:04:39.697Z,71.18
2023-02-18T16:07:23.410Z,70.94
2023-02-18T16:09:50.436Z,71.77
2023-02-18T16:12:30.514Z,71.28
2023-02-18T16:15:00.145Z,71.38
2023-02-18T16:17:29.243Z,71.36
2023-02-18T16:20:05.356Z,71.86
2023-02-18T16:22:36.710Z,71.86
2023-02-18T16:25:23.760Z,72.10
2023-02-18T16:27:59.577Z,72.26
2023-02-18T16:30:32.558Z,72.12
2023-02-18T16:32:59.490Z,72.74
2023-02-18T16:35:32.697Z,73.06
2023-02-18T16:38:04.358Z,73.51
2023-02-18T16:40:35.406Z,73.62
2023-02-18T16:43:19.709Z,73.90
2023-02-18T16:45:53.793Z,73.89
2023-02-18T16:48:35.535Z,74.10
2023-02-18T16:51:16.638Z,73.90
2023-02-18T16:53:44.674Z,74.34
2023-02-18T16:56:24.256Z,74.23
2023-02-18T16:58:51.444Z,74.59
2023-02-18T17:01:33.718Z,74.54
2023-02-18T17:04:02.073Z,74.73
2023-02-18T17:06:34.420Z,74.61
2023-02-18T17:09:01.307Z,75.03
2023-02-18T17:11:58.241Z,75.16
2023-02-18T17:14:23.668Z,74.94
2023-02-18T17:16:55.841Z,75.25
2023-02-18T17:19:22.431Z,75.38
2023-02-18T17:21:53.606Z,75.56
2023-02-18T17:24:22.546Z,76.04
2023-02-18T17:26:51.097Z,76.16
2023-02-18T17:29:17.951Z,76.00
2023-02-18T17:31:47.196Z,76.43
2023-02-18T17:34:29.026Z,76.04
2023-02-18T17:36:57.726Z,76.43
2023-02-18T17:39:29.212Z,76.17
2023-02-18T17:42:16.953Z,76.03
2023-02-18T17:44:43.526Z,76.88
2023-02-18T17:47:10.079Z,76.98
2023-02-18T17:49:39.076Z,76.24
2023-02-18T17:52:05.719Z,76.74
2023-02-18T17:54:35.377Z,76.97
2023-02-18T17:57:01.811Z,77.45
2023-02-18T17:59:31.379Z,77.10
2023-02-18T18:02:00.715Z,77.29
2023-02-18T18:04:27.472Z,77.48
2023-02-18T18:06:55.831Z,77.73
2023-02-18T18:09:25.565Z,77.75
2023-02-18T18:11:57.931Z,78.09
2023-02-18T18:14:24.208Z,77.85
2023-02-18T18:16:53.383Z,78.35
2023-02-18T18:19:22.626Z,78.36
2023-02-18T18:21:51.340Z,78.42
2023-02-18T18:24:18.123Z,79.35
2023-02-18T18:26:44.882Z,78.15
2023-02-18T18:29:11.615Z,78.20
2023-02-18T18:31:38.588Z,78.67
2023-02-18T18:34:07.607Z,78.48
2023-02-18T18:36:34.005Z,78.68
2023-02-18T18:39:01.815Z,78.73
2023-02-18T18:41:28.220Z,78.64
2023-02-18T18:43:59.357Z,78.84
2023-02-18T18:46:30.645Z,78.75
2023-02-18T18:48:59.592Z,78.89
2023-02-18T18:51:29.786Z,79.12
2023-02-18T18:53:56.360Z,79.27
2023-02-18T18:56:23.202Z,79.53
2023-02-18T18:58:53.510Z,79.16
2023-02-18T19:01:27.004Z,79.02
2023-02-18T19:03:54.200Z,79.45
2023-02-18T19:06:25.258Z,79.66
2023-02-18T19:08:51.858Z,79.92
2023-02-18T19:11:18.622Z,80.12
2023-02-18T19:13:45.747Z,79.65
2023-02-18T19:16:27.862Z,79.58
2023-02-18T19:18:54.308Z,80.10
2023-02-18T19:21:20.898Z,80.12
2023-02-18T19:23:47.569Z,79.98
2023-02-18T19:26:15.881Z,80.21
2023-02-18T19:28:43.511Z,80.34
2023-02-18T19:31:11.242Z,80.05
2023-02-18T19:33:39.058Z,80.20
2023-02-18T19:36:10.684Z,79.91
2023-02-18T19:38:38.515Z,80.50
2023-02-18T19:41:09.843Z,80.01
2023-02-18T19:43:36.492Z,79.90
2023-02-18T19:46:11.309Z,80.08
2023-02-18T19:48:37.768Z,79.88
2023-02-18T19:51:05.302Z,80.02
2023-02-18T19:53:32.089Z,80.07
2023-02-18T19:56:02.262Z,80.26
2023-02-18T19:58:29.134Z,79.73
2023-02-18T20:00:59.694Z,79.59
2023-02-18T20:03:26.375Z,79.29
2023-02-18T20:05:52.741Z,79.32
2023-02-18T20:08:19.150Z,79.50
2023-02-18T20:10:45.610Z,79.12
2023-02-18T20:13:12.226Z,79.58
2023-02-18T20:15:40.797Z,79.06
2023-02-18T20:18:10.482Z,79.32
2023-02-18T20:20:39.946Z,79.80
2023-02-18T20:23:08.766Z,79.54
2023-02-18T20:25:47.516Z,79.11
2023-02-18T20:28:14.834Z,79.11
2023-02-18T20:30:41.678Z,79.50
2023-02-18T20:33:08.660Z,79.37
2023-02-18T20:35:35.419Z,79.40
2023-02-18T20:38:04.650Z,79.49
2023-02-18T20:40:38.348Z,79.68
2023-02-18T20:43:04.875Z,79.70
2023-02-18T20:45:34.302Z,79.58
2023-02-18T20:48:03.345Z,79.76
2023-02-18T20:50:29.741Z,78.98
2023-02-18T20:52:58.089Z,79.40
2023-02-18T20:55:30.042Z,79.55
2023-02-18T20:57:57.163Z,79.17
2023-02-18T21:00:23.784Z,79.15
2023-02-18T21:02:52.465Z,79.46
2023-02-18T21:05:19.585Z,79.65
2023-02-18T21:07:46.397Z,79.55
2023-02-18T21:10:48.784Z,79.91
2023-02-18T21:13:15.310Z,79.67
2023-02-18T21:15:41.976Z,79.88
2023-02-18T21:18:08.810Z,80.46
2023-02-18T21:20:35.638Z,80.41
2023-02-18T21:23:07.522Z,80.96
2023-02-18T21:25:35.680Z,81.29
2023-02-18T21:28:02.333Z,81.34
2023-02-18T21:30:38.579Z,81.64
2023-02-18T21:33:08.739Z,82.14
2023-02-18T21:35:36.554Z,82.26
2023-02-18T21:38:05.836Z,82.59
2023-02-18T21:40:32.487Z,82.51
2023-02-18T21:43:05.223Z,82.99
2023-02-18T21:45:36.507Z,83.13
2023-02-18T21:48:32.374Z,83.55
2023-02-18T21:51:02.654Z,83.53
2023-02-18T21:53:29.056Z,84.03
2023-02-18T21:56:08.033Z,83.95
2023-02-18T21:58:36.302Z,84.65
2023-02-18T22:01:02.745Z,84.33
2023-02-18T22:03:31.823Z,85.03
2023-02-18T22:06:00.010Z,84.76
2023-02-18T22:08:27.860Z,85.33
2023-02-18T22:10:54.612Z,85.16
2023-02-18T22:13:23.644Z,84.74
2023-02-18T22:15:56.882Z,85.05
2023-02-18T22:18:23.822Z,85.40
2023-02-18T22:20:59.807Z,85.25
2023-02-18T22:23:26.402Z,85.48
2023-02-18T22:25:52.899Z,85.13
2023-02-18T22:28:19.726Z,85.50
2023-02-18T22:30:46.209Z,85.02
2023-02-18T22:33:12.665Z,85.53
2023-02-18T22:35:39.060Z,85.25
2023-02-18T22:38:08.273Z,85.16
2023-02-18T22:40:37.352Z,84.95
2023-02-18T22:43:04.039Z,84.98
2023-02-18T22:45:30.749Z,84.52
2023-02-18T22:48:00.115Z,84.55
2023-02-18T22:50:26.805Z,84.49
2023-02-18T22:52:53.786Z,84.47
2023-02-18T22:55:22.798Z,83.97
2023-02-18T22:57:51.549Z,84.16
2023-02-18T23:00:27.054Z,83.61
2023-02-18T23:02:53.768Z,83.73
2023-02-18T23:05:22.319Z,84.25
2023-02-18T23:07:50.954Z,83.45
2023-02-18T23:10:20.921Z,83.97
2023-02-18T23:12:47.420Z,83.68
2023-02-18T23:15:16.204Z,83.41
2023-02-18T23:17:42.826Z,83.28
2023-02-18T23:20:12.804Z,83.33
2023-02-18T23:22:41.914Z,83.16
2023-02-18T23:25:08.858Z,82.84
2023-02-18T23:27:35.362Z,83.33
2023-02-18T23:30:02.077Z,82.87
2023-02-18T23:32:31.868Z,83.03
2023-02-18T23:34:58.356Z,82.87
2023-02-18T23:37:46.811Z,82.95
2023-02-18T23:40:23.312Z,83.14
2023-02-18T23:42:55.594Z,83.21
2023-02-18T23:45:22.193Z,83.87
2023-02-18T23:47:48.922Z,83.68
2023-02-18T23:50:18.430Z,84.16
2023-02-18T23:52:48.815Z,84.00
2023-02-18T23:55:21.847Z,84.19
2023-02-18T23:57:48.777Z,84.51
